createdAt,value
2022-09-17T00:02:33.438Z,97199.56
2022-09-17T00:05:18.990Z,97202.06
2022-09-17T00:08:05.695Z,97207.66
2022-09-17T00:10:50.944Z,97211.78
2022-09-17T00:13:36.668Z,97205.88
2022-09-17T00:16:23.856Z,97211.19
2022-09-17T00:19:13.489Z,97206.75
2022-09-17T00:21:58.831Z,97216.38
2022-09-17T00:24:44.696Z,97212.16
2022-09-17T00:27:30.224Z,97205.84
2022-09-17T00:30:15.924Z,97199.56
2022-09-17T00:33:01.417Z,97195.41
2022-09-17T00:35:57.567Z,97200.91
2022-09-17T00:38:43.448Z,97189.56
2022-09-17T00:41:30.702Z,97181.19
2022-09-17T00:44:35.113Z,97189.13
2022-09-17T00:47:26.973Z,97190.72
2022-09-17T00:50:17.569Z,97200.03
2022-09-17T00:53:13.918Z,97216.84
2022-09-17T00:56:03.317Z,97212.69
2022-09-17T00:58:49.767Z,97209.81
2022-09-17T01:01:36.090Z,97207.66
2022-09-17T01:04:25.971Z,97210.19
2022-09-17T01:07:29.850Z,97195.25
2022-09-17T01:10:35.333Z,97199.94
2022-09-17T01:13:20.480Z,97196.50
2022-09-17T01:16:06.051Z,97186.78
2022-09-17T01:19:00.750Z,97195.03
2022-09-17T01:21:49.093Z,97204.78
2022-09-17T01:24:37.447Z,97201.34
2022-09-17T01:27:58.170Z,97208.38
2022-09-17T01:31:04.878Z,97207.84
2022-09-17T01:34:05.624Z,97205.13
2022-09-17T01:36:58.362Z,97193.91
2022-09-17T01:40:00.889Z,97195.25
2022-09-17T01:42:49.278Z,97186.69
2022-09-17T01:45:37.901Z,97193.63
2022-09-17T01:48:27.134Z,97196.31
2022-09-17T01:51:14.899Z,97196.22
2022-09-17T01:54:06.795Z,97202.50
2022-09-17T01:56:55.466Z,97201.00
2022-09-17T01:59:52.094Z,97200.00
2022-09-17T02:02:41.501Z,97205.19
2022-09-17T02:05:39.564Z,97215.97
2022-09-17T02:08:26.528Z,97207.59
2022-09-17T02:11:15.249Z,97209.00
2022-09-17T02:14:04.030Z,97210.38
2022-09-17T02:16:55.321Z,97207.59
2022-09-17T02:19:41.193Z,97203.34
2022-09-17T02:22:30.389Z,97201.81
2022-09-17T02:25:18.835Z,97207.22
2022-09-17T02:28:10.246Z,97217.97
2022-09-17T02:30:55.822Z,97213.66
2022-09-17T02:33:42.210Z,97210.03
2022-09-17T02:36:28.509Z,97205.00
2022-09-17T02:39:14.033Z,97206.44
2022-09-17T02:42:05.774Z,97210.56
2022-09-17T02:44:55.324Z,97196.72
2022-09-17T02:48:00.642Z,97211.91
2022-09-17T02:50:53.145Z,97220.09
2022-09-17T02:53:56.839Z,97213.78
2022-09-17T02:56:57.530Z,97197.69
2022-09-17T03:00:21.538Z,97197.41
2022-09-17T03:03:13.382Z,97208.38
2022-09-17T03:05:59.290Z,97220.97
2022-09-17T03:08:47.571Z,97220.97
2022-09-17T03:11:33.026Z,97227.22
2022-09-17T03:14:20.741Z,97223.63
2022-09-17T03:17:06.228Z,97220.31
2022-09-17T03:19:51.515Z,97217.00
2022-09-17T03:22:36.850Z,97214.53
2022-09-17T03:25:22.134Z,97205.72
2022-09-17T03:28:07.780Z,97211.47
2022-09-17T03:30:53.697Z,97199.78
2022-09-17T03:33:39.063Z,97204.75
2022-09-17T03:36:24.676Z,97197.94
2022-09-17T03:39:09.967Z,97182.56
2022-09-17T03:41:55.550Z,97184.44
2022-09-17T03:44:45.205Z,97193.41
2022-09-17T03:47:30.897Z,97190.63
2022-09-17T03:50:16.551Z,97183.06
2022-09-17T03:53:02.027Z,97195.50
2022-09-17T03:55:47.069Z,97210.75
2022-09-17T03:58:32.889Z,97212.22
2022-09-17T04:01:18.434Z,97208.09
2022-09-17T04:04:03.946Z,97199.72
2022-09-17T04:06:49.325Z,97206.63
2022-09-17T04:09:35.350Z,97210.94
2022-09-17T04:12:20.983Z,97216.53
2022-09-17T04:15:06.396Z,97210.94
2022-09-17T04:17:54.979Z,97210.88
2022-09-17T04:20:40.237Z,97208.69
2022-09-17T04:23:25.396Z,97219.22
2022-09-17T04:26:11.293Z,97210.75
2022-09-17T04:28:56.582Z,97199.44
2022-09-17T04:31:42.134Z,97206.25
2022-09-17T04:34:27.671Z,97206.06
2022-09-17T04:37:12.919Z,97203.16
2022-09-17T04:39:58.625Z,97212.16
2022-09-17T04:42:43.928Z,97212.16
2022-09-17T04:45:30.736Z,97190.59
2022-09-17T04:48:16.235Z,97201.75
2022-09-17T04:51:01.301Z,97202.78
2022-09-17T04:53:46.963Z,97207.44
2022-09-17T04:56:32.645Z,97217.78
2022-09-17T04:59:18.038Z,97211.47
2022-09-17T05:02:03.755Z,97210.75
2022-09-17T05:04:50.732Z,97221.91
2022-09-17T05:07:38.496Z,97224.69
2022-09-17T05:10:24.313Z,97217.66
2022-09-17T05:13:09.998Z,97219.00
2022-09-17T05:15:56.733Z,97221.59
2022-09-17T05:18:42.009Z,97204.59
2022-09-17T05:21:27.015Z,97209.44
2022-09-17T05:24:12.384Z,97202.53
2022-09-17T05:26:58.013Z,97190.03
2022-09-17T05:29:43.351Z,97190.16
2022-09-17T05:32:28.889Z,97196.63
2022-09-17T05:35:14.444Z,97185.69
2022-09-17T05:38:04.564Z,97192.69
2022-09-17T05:40:49.711Z,97180.94
2022-09-17T05:43:35.319Z,97178.88
2022-09-17T05:46:20.380Z,97184.63
2022-09-17T05:49:05.996Z,97187.72
2022-09-17T05:51:51.935Z,97192.13
2022-09-17T05:54:37.370Z,97196.53
2022-09-17T05:57:23.106Z,97193.94
2022-09-17T06:00:09.543Z,97193.41
2022-09-17T06:03:02.252Z,97195.66
2022-09-17T06:06:00.209Z,97198.56
2022-09-17T06:08:45.590Z,97208.53
2022-09-17T06:11:31.528Z,97212.88
2022-09-17T06:14:17.352Z,97212.25
2022-09-17T06:17:03.235Z,97213.69
2022-09-17T06:19:48.828Z,97212.97
2022-09-17T06:22:34.851Z,97211.00
2022-09-17T06:25:20.570Z,97210.38
2022-09-17T06:28:06.347Z,97202.09
2022-09-17T06:30:57.199Z,97196.63
2022-09-17T06:33:42.858Z,97192.50
2022-09-17T06:36:28.928Z,97188.34
2022-09-17T06:39:20.684Z,97199.00
2022-09-17T06:42:07.105Z,97201.22
2022-09-17T06:44:53.056Z,97208.34
2022-09-17T06:47:39.215Z,97205.47
2022-09-17T06:50:25.525Z,97208.19
2022-09-17T06:53:11.822Z,97224.91
2022-09-17T06:56:02.326Z,97222.03
2022-09-17T06:58:50.692Z,97217.66
2022-09-17T07:01:36.438Z,97205.19
2022-09-17T07:04:21.942Z,97217.88
2022-09-17T07:07:07.061Z,97211.03
2022-09-17T07:09:53.710Z,97215.47
2022-09-17T07:12:44.453Z,97220.41
2022-09-17T07:15:32.624Z,97209.97
2022-09-17T07:18:17.949Z,97217.00
2022-09-17T07:21:04.459Z,97217.09
2022-09-17T07:23:51.546Z,97220.50
2022-09-17T07:26:37.963Z,97219.16
2022-09-17T07:29:32.452Z,97218.63
2022-09-17T07:32:19.809Z,97228.50
2022-09-17T07:35:05.631Z,97218.81
2022-09-17T07:37:51.517Z,97225.81
2022-09-17T07:40:38.100Z,97237.69
2022-09-17T07:43:24.304Z,97236.47
2022-09-17T07:46:15.207Z,97226.00
2022-09-17T07:49:01.184Z,97217.72
2022-09-17T07:51:46.837Z,97092.41
2022-09-17T07:54:33.531Z,97209.47
2022-09-17T07:57:18.903Z,97208.03
2022-09-17T08:01:23.800Z,97210.72
2022-09-17T08:04:09.481Z,97220.69
2022-09-17T08:06:55.657Z,97232.69
2022-09-17T08:09:41.271Z,97237.63
2022-09-17T08:12:26.963Z,97230.00
2022-09-17T08:15:12.267Z,97234.63
2022-09-17T08:17:57.763Z,97226.66
2022-09-17T08:20:43.459Z,97230.69
2022-09-17T08:23:29.480Z,97230.16
2022-09-17T08:26:16.062Z,97223.50
2022-09-17T08:29:02.175Z,97233.56
2022-09-17T08:31:48.398Z,97239.53
2022-09-17T08:34:34.209Z,97238.53
2022-09-17T08:37:19.756Z,97224.22
2022-09-17T08:40:06.356Z,97103.44
2022-09-17T08:43:02.477Z,97230.31
2022-09-17T08:45:55.143Z,97223.50
2022-09-17T08:49:06.132Z,97217.53
2022-09-17T08:51:53.447Z,97223.47
2022-09-17T08:54:45.327Z,97216.78
2022-09-17T08:57:31.701Z,97212.81
2022-09-17T09:00:18.796Z,97221.47
2022-09-17T09:03:23.301Z,97221.78
2022-09-17T09:06:10.985Z,97224.13
2022-09-17T09:09:19.871Z,97226.38
2022-09-17T09:12:07.950Z,97213.13
2022-09-17T09:14:59.926Z,97229.88
2022-09-17T09:17:47.095Z,97232.69
2022-09-17T09:20:51.990Z,97233.88
2022-09-17T09:23:46.375Z,97226.13
2022-09-17T09:26:34.800Z,97228.91
2022-09-17T09:29:29.949Z,97221.97
2022-09-17T09:32:25.297Z,97230.50
2022-09-17T09:35:17.252Z,97218.09
2022-09-17T09:38:09.198Z,97210.47
2022-09-17T09:41:07.356Z,97203.38
2022-09-17T09:44:04.500Z,97205.38
2022-09-17T09:47:09.234Z,97197.06
2022-09-17T09:50:08.789Z,97189.66
2022-09-17T09:53:19.206Z,97194.84
2022-09-17T09:56:09.763Z,97191.03
2022-09-17T09:58:54.963Z,97192.63
2022-09-17T10:01:41.909Z,97182.88
2022-09-17T10:04:28.815Z,97181.78
2022-09-17T10:07:14.870Z,97189.09
2022-09-17T10:10:08.771Z,97198.59
2022-09-17T10:13:08.331Z,97089.13
2022-09-17T10:15:53.698Z,97200.09
2022-09-17T10:18:40.155Z,97196.25
2022-09-17T10:21:33.139Z,97203.38
2022-09-17T10:24:27.055Z,97204.75
2022-09-17T10:27:14.179Z,97199.69
2022-09-17T10:30:08.664Z,97205.84
2022-09-17T10:33:17.712Z,97194.66
2022-09-17T10:36:04.536Z,97181.59
2022-09-17T10:38:50.296Z,97174.09
2022-09-17T10:41:36.051Z,97165.94
2022-09-17T10:44:23.112Z,97169.75
2022-09-17T10:47:14.052Z,97167.91
2022-09-17T10:50:01.400Z,97170.75
2022-09-17T10:52:47.847Z,97169.47
2022-09-17T10:55:45.560Z,97171.78
2022-09-17T10:58:46.455Z,97174.06
2022-09-17T11:01:41.107Z,97167.25
2022-09-17T11:04:26.871Z,97164.66
2022-09-17T11:07:44.723Z,97152.19
2022-09-17T11:10:43.544Z,97141.31
2022-09-17T11:13:29.283Z,97151.34
2022-09-17T11:16:33.301Z,97158.53
2022-09-17T11:19:48.734Z,97153.06
2022-09-17T11:22:52.171Z,97151.78
2022-09-17T11:25:43.359Z,97158.72
2022-09-17T11:28:28.967Z,97162.97
2022-09-17T11:31:24.272Z,97161.63
2022-09-17T11:34:27.887Z,97152.53
2022-09-17T11:37:32.068Z,97147.00
2022-09-17T11:40:22.355Z,97145.69
2022-09-17T11:43:15.555Z,97156.25
2022-09-17T11:46:04.590Z,97156.22
2022-09-17T11:49:02.057Z,97154.81
2022-09-17T11:51:50.506Z,97149.16
2022-09-17T11:55:08.115Z,97150.59
2022-09-17T11:57:59.746Z,97147.13
2022-09-17T12:00:50.505Z,97148.44
2022-09-17T12:03:40.376Z,97149.16
2022-09-17T12:06:36.409Z,97147.13
2022-09-17T12:09:25.987Z,97133.91
2022-09-17T12:12:45.054Z,97136.78
2022-09-17T12:15:25.789Z,97135.22
2022-09-17T12:18:30.989Z,97140.16
2022-09-17T12:21:20.287Z,97135.34
2022-09-17T12:24:13.567Z,97129.75
2022-09-17T12:27:16.990Z,97124.00
2022-09-17T12:30:02.537Z,97119.72
2022-09-17T12:33:10.508Z,97114.09
2022-09-17T12:36:05.171Z,97107.13
2022-09-17T12:38:51.160Z,97107.19
2022-09-17T12:41:46.443Z,97105.25
2022-09-17T12:44:31.865Z,97115.78
2022-09-17T12:47:17.019Z,97106.03
2022-09-17T12:50:11.572Z,97110.38
2022-09-17T12:53:08.623Z,97118.69
2022-09-17T12:56:01.922Z,97125.03
2022-09-17T12:59:10.241Z,97122.97
2022-09-17T13:01:58.881Z,97124.41
2022-09-17T13:05:00.876Z,97128.72
2022-09-17T13:08:16.567Z,97129.56
2022-09-17T13:11:04.869Z,97124.56
2022-09-17T13:13:57.524Z,97124.41
2022-09-17T13:16:51.897Z,97124.31
2022-09-17T13:19:52.929Z,97124.16
2022-09-17T13:22:44.081Z,97128.97
2022-09-17T13:25:30.046Z,97126.81
2022-09-17T13:28:15.621Z,97128.13
2022-09-17T13:31:02.188Z,97123.88
2022-09-17T13:33:56.284Z,97108.31
2022-09-17T13:36:47.402Z,97113.72
2022-09-17T13:39:40.610Z,97104.50
2022-09-17T13:42:29.166Z,97109.38
2022-09-17T13:45:16.278Z,97103.09
2022-09-17T13:48:03.137Z,97088.28
2022-09-17T13:50:50.288Z,97089.66
2022-09-17T13:53:38.886Z,97092.47
2022-09-17T13:56:36.713Z,97091.19
2022-09-17T13:59:24.927Z,97066.72
2022-09-17T14:02:16.224Z,97077.38
2022-09-17T14:05:20.141Z,97076.06
2022-09-17T14:08:25.112Z,97073.97
2022-09-17T14:11:22.847Z,97077.50
2022-09-17T14:14:14.414Z,97066.28
2022-09-17T14:17:00.384Z,97055.78
2022-09-17T14:19:51.500Z,97046.66
2022-09-17T14:22:37.695Z,97038.28
2022-09-17T14:25:28.940Z,97036.84
2022-09-17T14:28:18.363Z,97031.94
2022-09-17T14:31:09.447Z,97036.13
2022-09-17T14:33:55.365Z,97042.34
2022-09-17T14:36:42.444Z,97036.00
2022-09-17T14:39:30.398Z,97014.16
2022-09-17T14:42:21.991Z,97011.16
2022-09-17T14:45:23.022Z,97008.31
2022-09-17T14:48:27.521Z,97013.84
2022-09-17T14:51:19.138Z,97008.31
2022-09-17T14:54:09.970Z,97007.00
2022-09-17T14:57:21.313Z,96995.78
2022-09-17T15:00:10.972Z,96987.41
2022-09-17T15:02:59.721Z,97004.28
2022-09-17T15:05:47.631Z,96998.66
2022-09-17T15:08:34.082Z,97005.00
2022-09-17T15:11:19.851Z,97002.94
2022-09-17T15:14:07.003Z,96994.63
2022-09-17T15:16:54.993Z,96993.25
2022-09-17T15:19:42.171Z,96987.59
2022-09-17T15:22:29.845Z,96996.06
2022-09-17T15:25:18.290Z,96998.78
2022-09-17T15:28:08.937Z,97002.25
2022-09-17T15:30:54.275Z,96984.75
2022-09-17T15:33:40.376Z,96991.69
2022-09-17T15:36:27.769Z,97012.75
2022-09-17T15:39:29.961Z,97007.16
2022-09-17T15:42:24.313Z,96997.22
2022-09-17T15:45:19.148Z,96993.00
2022-09-17T15:48:10.950Z,96990.06
2022-09-17T15:50:57.789Z,96984.34
2022-09-17T15:53:51.287Z,96976.47
2022-09-17T15:56:38.882Z,96969.28
2022-09-17T15:59:31.971Z,96967.75
2022-09-17T16:02:28.585Z,96965.47
2022-09-17T16:05:14.480Z,96977.19
2022-09-17T16:08:16.794Z,96978.41
2022-09-17T16:11:02.001Z,96981.81
2022-09-17T16:13:48.602Z,96980.28
2022-09-17T16:16:35.926Z,96982.38
2022-09-17T16:19:22.155Z,96984.53
2022-09-17T16:22:08.071Z,96983.16
2022-09-17T16:24:53.725Z,96984.53
2022-09-17T16:27:54.812Z,96989.34
2022-09-17T16:30:45.246Z,96994.22
2022-09-17T16:33:30.834Z,97004.00
2022-09-17T16:36:17.059Z,97017.91
2022-09-17T16:39:02.507Z,97016.47
2022-09-17T16:41:47.778Z,97010.13
2022-09-17T16:44:34.236Z,97005.06
2022-09-17T16:47:20.049Z,97002.72
2022-09-17T16:50:06.869Z,96989.16
2022-09-17T16:52:53.521Z,96983.28
2022-09-17T16:55:38.786Z,96981.63
2022-09-17T16:58:24.354Z,96974.47
2022-09-17T17:01:13.597Z,96974.31
2022-09-17T17:04:00.807Z,96962.94
2022-09-17T17:06:47.007Z,96951.53
2022-09-17T17:09:32.621Z,96959.06
2022-09-17T17:12:18.192Z,96963.72
2022-09-17T17:15:06.085Z,96960.53
2022-09-17T17:17:53.065Z,96962.25
2022-09-17T17:20:40.304Z,96971.00
2022-09-17T17:23:25.492Z,96976.38
2022-09-17T17:26:11.063Z,96974.22
2022-09-17T17:28:57.591Z,96986.31
2022-09-17T17:31:43.539Z,96990.84
2022-09-17T17:34:29.951Z,96984.13
2022-09-17T17:37:15.198Z,96994.03
2022-09-17T17:40:01.945Z,96991.22
2022-09-17T17:42:51.651Z,96992.50
2022-09-17T17:45:38.015Z,96997.97
2022-09-17T17:48:23.801Z,96989.34
2022-09-17T17:51:10.512Z,96996.06
2022-09-17T17:53:55.889Z,96995.91
2022-09-17T17:56:41.620Z,96998.63
2022-09-17T17:59:27.247Z,96990.16
2022-09-17T18:02:12.504Z,96989.53
2022-09-17T18:05:02.040Z,96989.59
2022-09-17T18:07:50.214Z,96997.34
2022-09-17T18:10:35.705Z,96994.56
2022-09-17T18:13:21.803Z,97007.25
2022-09-17T18:16:09.120Z,97008.75
2022-09-17T18:18:55.237Z,97011.56
2022-09-17T18:21:40.791Z,97016.34
2022-09-17T18:24:26.234Z,97025.13
2022-09-17T18:27:11.652Z,97021.94
2022-09-17T18:29:57.596Z,97027.13
2022-09-17T18:32:42.937Z,97012.69
2022-09-17T18:35:29.377Z,97005.19
2022-09-17T18:38:15.712Z,97007.72
2022-09-17T18:41:05.101Z,96997.91
2022-09-17T18:43:50.853Z,96999.13
2022-09-17T18:46:37.195Z,96991.84
2022-09-17T18:49:22.545Z,96977.66
2022-09-17T18:52:07.949Z,96979.56
2022-09-17T18:54:53.457Z,96970.94
2022-09-17T18:57:39.119Z,96980.31
2022-09-17T19:00:24.769Z,96970.94
2022-09-17T19:03:10.146Z,96965.72
2022-09-17T19:05:58.664Z,96958.44
2022-09-17T19:08:44.965Z,96967.28
2022-09-17T19:11:31.446Z,96958.66
2022-09-17T19:14:17.478Z,96951.38
2022-09-17T19:17:02.766Z,96948.25
2022-09-17T19:19:48.496Z,96945.94
2022-09-17T19:22:33.858Z,96947.72
2022-09-17T19:25:23.315Z,96944.59
2022-09-17T19:28:08.839Z,96931.03
2022-09-17T19:30:54.571Z,96923.22
2022-09-17T19:33:39.896Z,96925.84
2022-09-17T19:36:26.293Z,96935.53
2022-09-17T19:39:12.321Z,96929.97
2022-09-17T19:41:58.113Z,96927.19
2022-09-17T19:44:43.397Z,96932.47
2022-09-17T19:47:28.827Z,96935.00
2022-09-17T19:50:15.066Z,96926.38
2022-09-17T19:53:00.607Z,96930.34
2022-09-17T19:55:46.508Z,96919.03
2022-09-17T19:58:31.854Z,96779.78
2022-09-17T20:01:17.794Z,96897.81
2022-09-17T20:04:04.593Z,96903.47
2022-09-17T20:06:50.080Z,96916.13
2022-09-17T20:09:35.797Z,96913.44
2022-09-17T20:12:21.119Z,96925.84
2022-09-17T20:15:06.714Z,96918.75
2022-09-17T20:17:52.271Z,96921.34
2022-09-17T20:20:38.447Z,96813.69
2022-09-17T20:23:23.679Z,96918.38
2022-09-17T20:26:10.483Z,96922.44
2022-09-17T20:28:55.750Z,96913.97
2022-09-17T20:31:41.314Z,96911.66
2022-09-17T20:34:26.915Z,96928.88
2022-09-17T20:37:13.822Z,96926.72
2022-09-17T20:39:59.459Z,96927.44
2022-09-17T20:42:44.983Z,96914.16
2022-09-17T20:45:30.322Z,96909.09
2022-09-17T20:48:15.927Z,96920.06
2022-09-17T20:51:03.192Z,96912.88
2022-09-17T20:53:48.923Z,96914.03
2022-09-17T20:56:34.945Z,96909.59
2022-09-17T20:59:24.888Z,96914.97
2022-09-17T21:02:11.483Z,96909.22
2022-09-17T21:04:56.726Z,96903.47
2022-09-17T21:07:42.118Z,96900.59
2022-09-17T21:10:27.799Z,96899.16
2022-09-17T21:13:13.157Z,96895.03
2022-09-17T21:15:59.476Z,96895.22
2022-09-17T21:18:44.904Z,96893.97
2022-09-17T21:21:30.391Z,96894.16
2022-09-17T21:24:15.742Z,96888.75
2022-09-17T21:27:01.402Z,96911.97
2022-09-17T21:29:46.752Z,96911.44
2022-09-17T21:32:32.511Z,96901.75
2022-09-17T21:35:17.666Z,96899.75
2022-09-17T21:38:03.195Z,96891.50
2022-09-17T21:40:58.482Z,96896.47
2022-09-17T21:43:44.165Z,96893.13
2022-09-17T21:46:33.062Z,96899.41
2022-09-17T21:49:18.536Z,96894.38
2022-09-17T21:52:04.045Z,96898.25
2022-09-17T21:54:49.694Z,96901.38
2022-09-17T21:57:35.161Z,96893.97
2022-09-17T22:00:23.407Z,96889.47
2022-09-17T22:03:09.188Z,96884.88
2022-09-17T22:05:54.376Z,96878.81
2022-09-17T22:08:39.833Z,96883.91
2022-09-17T22:11:27.894Z,96869.63
2022-09-17T22:14:15.292Z,96858.41
2022-09-17T22:17:00.719Z,96844.31
2022-09-17T22:19:45.995Z,96837.31
2022-09-17T22:22:30.976Z,96833.13
2022-09-17T22:25:16.284Z,96833.13
2022-09-17T22:28:20.103Z,96826.72
2022-09-17T22:31:07.781Z,96831.66
2022-09-17T22:33:53.051Z,96835.88
2022-09-17T22:36:38.748Z,96825.56
2022-09-17T22:39:24.057Z,96815.06
2022-09-17T22:42:09.358Z,96805.94
2022-09-17T22:44:55.064Z,96802.25
2022-09-17T22:47:40.782Z,96800.53
2022-09-17T22:50:25.908Z,96797.44
2022-09-17T22:53:11.533Z,96796.56
2022-09-17T22:55:57.692Z,96784.59
2022-09-17T22:58:43.455Z,96771.97
2022-09-17T23:01:30.081Z,96762.09
2022-09-17T23:04:15.367Z,96763.97
2022-09-17T23:07:00.746Z,96773.44
2022-09-17T23:09:46.175Z,96778.78
2022-09-17T23:12:31.688Z,96775.09
2022-09-17T23:15:16.675Z,96765.25
2022-09-17T23:18:01.680Z,96760.94
2022-09-17T23:21:00.366Z,96760.84
2022-09-17T23:23:47.489Z,96749.75
2022-09-17T23:26:32.686Z,96733.16
2022-09-17T23:29:18.383Z,96729.03
2022-09-17T23:32:03.709Z,96731.81
2022-09-17T23:34:49.148Z,96751.88
2022-09-17T23:37:34.693Z,96771.94
2022-09-17T23:40:22.082Z,96756.53
2022-09-17T23:43:07.142Z,96740.28
2022-09-17T23:45:56.458Z,96729.00
2022-09-17T23:48:41.818Z,96742.03
2022-09-17T23:51:30.665Z,96740.59
2022-09-17T23:54:15.908Z,96733.59
2022-09-17T23:57:01.594Z,96714.78
2022-09-17T23:59:47.030Z,96703.47
